Time;durP1;ratioP1;P1;durP2;ratioP2;P2;SDS_P1;SDS_P2;PMS_P1;PMS_P2;Temp;Humidity;BMP_temperature;BMP_pressure;BME280_temperature;BME280_humidity;BME280_pressure;Samples;Min_cycle;Max_cycle;Signal;HPM_P1;HPM_P2
2023/10/09 00:00:50;;;;;;;3.63;1.52;;;;;;;14.44;82.07;100047.53;337796;28;17364;-65
2023/10/09 00:01:05;;;;;;;3.28;1.48;;;;;;;14.39;81.93;100053.81;334899;28;17929;-65
2023/10/09 00:01:20;;;;;;;3.92;1.40;;;;;;;14.39;81.97;100060.81;335439;28;16561;-65
2023/10/09 00:01:32;;;;;;;3.70;1.50;;;;;;;14.38;82.08;100049.47;334452;28;17817;-66
2023/10/09 00:01:46;;;;;;;2.50;1.27;;;;;;;14.42;81.95;100051.97;336369;28;4708;-65
2023/10/09 00:01:58;;;;;;;2.13;1.17;;;;;;;14.38;81.72;100053.84;334779;28;18116;-65
2023/10/09 00:02:12;;;;;;;2.03;1.35;;;;;;;14.37;82.02;100058.25;333906;28;17936;-65
2023/10/09 00:02:24;;;;;;;3.20;1.42;;;;;;;14.36;81.83;100045.22;335861;29;5219;-65
2023/10/09 00:02:37;;;;;;;3.40;1.55;;;;;;;14.36;81.95;100048.69;333643;28;17942;-65
2023/10/09 00:02:50;;;;;;;2.67;1.50;;;;;;;14.37;81.94;100050.41;336897;28;12164;-65
2023/10/09 00:03:03;;;;;;;2.50;1.38;;;;;;;14.40;81.79;100049.41;334472;28;4656;-65
2023/10/09 00:03:18;;;;;;;2.15;1.23;;;;;;;14.42;81.52;100046.75;332240;28;4762;-65
2023/10/09 00:03:30;;;;;;;1.52;1.15;;;;;;;14.42;81.54;100055.44;335955;28;17185;-65
2023/10/09 00:03:46;;;;;;;1.98;1.20;;;;;;;14.39;81.32;100048.56;334491;28;16790;-65
2023/10/09 00:04:01;;;;;;;2.40;1.27;;;;;;;14.37;81.53;100047.78;335104;28;17557;-66
2023/10/09 00:04:16;;;;;;;3.83;1.63;;;;;;;14.39;81.52;100047.72;334189;28;18224;-66
2023/10/09 00:04:29;;;;;;;5.03;2.08;;;;;;;14.39;81.64;100051.19;333204;28;18017;-65
2023/10/09 00:04:45;;;;;;;3.83;2.03;;;;;;;14.34;81.73;100057.53;337269;28;5188;-65
2023/10/09 00:04:57;;;;;;;2.90;1.83;;;;;;;14.30;81.93;100059.41;334606;28;18856;-65
2023/10/09 00:05:22;;;;;;;2.83;1.73;;;;;;;14.25;82.00;100050.91;337739;28;5990;-65
2023/10/09 00:05:58;;;;;;;2.13;1.23;;;;;;;14.27;82.69;100049.09;335295;28;17177;-66
2023/10/09 00:06:13;;;;;;;3.15;1.60;;;;;;;14.27;82.80;100054.31;331233;28;18154;-66
2023/10/09 00:06:36;;;;;;;3.28;1.80;;;;;;;14.26;83.03;100057.00;334015;28;17671;-66
2023/10/09 00:06:49;;;;;;;2.63;1.67;;;;;;;14.27;82.55;100051.69;334491;28;17237;-65
2023/10/09 00:07:02;;;;;;;3.80;2.05;;;;;;;14.29;82.52;100051.66;337534;28;5190;-65
2023/10/09 00:07:16;;;;;;;3.97;1.83;;;;;;;14.22;82.58;100045.81;334047;28;17975;-66
2023/10/09 00:07:30;;;;;;;2.78;1.35;;;;;;;14.23;82.76;100046.69;331731;28;19165;-66
2023/10/09 00:07:42;;;;;;;2.17;1.38;;;;;;;14.19;83.27;100054.63;335315;28;7783;-65
2023/10/09 00:07:55;;;;;;;1.98;1.30;;;;;;;14.19;83.39;100051.16;336590;28;16994;-65
2023/10/09 00:08:09;;;;;;;1.97;1.27;;;;;;;14.22;82.98;100050.19;333727;28;17995;-66
2023/10/09 00:08:21;;;;;;;2.30;1.20;;;;;;;14.23;82.89;100046.69;336556;28;5002;-65
2023/10/09 00:08:37;;;;;;;2.63;1.30;;;;;;;14.24;83.00;100051.81;333743;28;17937;-66
2023/10/09 00:08:54;;;;;;;2.58;1.40;;;;;;;14.23;83.24;100046.69;335295;28;17960;-65
2023/10/09 00:09:48;;;;;;;1.83;1.20;;;;;;;14.24;83.38;100054.44;336601;28;16921;-66
2023/10/09 00:09:50;;;;;;;2.60;1.48;;;;;;;14.24;82.91;100043.97;330369;28;18706;-66
2023/10/09 00:10:03;;;;;;;2.50;1.45;;;;;;;14.22;83.31;100051.03;335742;28;17786;-65
2023/10/09 00:10:16;;;;;;;2.15;1.35;;;;;;;14.20;83.59;100047.63;336292;28;14563;-65
2023/10/09 00:10:53;;;;;;;1.60;1.30;;;;;;;14.21;84.00;100040.66;335896;28;17966;-66
2023/10/09 00:11:18;;;;;;;4.00;1.60;;;;;;;14.24;83.31;100043.13;334972;28;17614;-65
2023/10/09 00:11:38;;;;;;;3.03;1.23;;;;;;;14.25;83.22;100044.84;334722;28;17470;-65
2023/10/09 00:11:57;;;;;;;3.72;1.50;;;;;;;14.23;83.05;100041.44;333803;28;17603;-66
2023/10/09 00:12:10;;;;;;;2.15;1.55;;;;;;;14.22;83.59;100040.56;334539;28;17832;-66
2023/10/09 00:12:22;;;;;;;2.17;1.38;;;;;;;14.24;83.30;100041.34;337892;28;9830;-65
2023/10/09 00:12:36;;;;;;;2.92;1.30;;;;;;;14.21;83.50;100041.50;330460;28;19169;-65
2023/10/09 00:12:49;;;;;;;4.15;1.67;;;;;;;14.19;83.55;100041.56;337344;28;5442;-65
2023/10/09 00:13:01;;;;;;;3.13;1.60;;;;;;;14.16;83.80;100041.66;333991;28;17935;-65
2023/10/09 00:13:13;;;;;;;2.72;1.40;;;;;;;14.13;84.14;100043.59;336196;28;5250;-65
2023/10/09 00:13:30;;;;;;;2.78;1.52;;;;;;;14.11;84.20;100042.78;336988;28;4829;-65
2023/10/09 00:13:51;;;;;;;3.80;1.80;;;;;;;14.10;84.34;100041.91;334833;28;17632;-65
2023/10/09 00:14:05;;;;;;;3.28;1.50;;;;;;;14.07;84.59;100036.84;333917;28;17872;-65
2023/10/09 00:14:18;;;;;;;2.92;1.50;;;;;;;14.10;84.50;100043.69;334583;28;18321;-66
2023/10/09 00:14:33;;;;;;;3.55;1.77;;;;;;;14.12;84.32;100045.31;334893;28;12071;-66
2023/10/09 00:14:48;;;;;;;5.30;1.88;;;;;;;14.15;84.22;100039.13;334284;28;16093;-66
2023/10/09 00:15:10;;;;;;;5.10;1.60;;;;;;;14.14;84.18;100035.66;333726;28;4832;-65
2023/10/09 00:15:22;;;;;;;3.00;1.30;;;;;;;14.16;84.80;100040.81;333745;28;17535;-65
2023/10/09 00:15:35;;;;;;;3.30;1.50;;;;;;;14.14;84.95;100042.66;336507;28;4849;-66
2023/10/09 00:15:52;;;;;;;2.03;1.48;;;;;;;14.16;84.64;100040.81;335357;28;17842;-65
2023/10/09 00:16:13;;;;;;;3.25;1.80;;;;;;;14.18;84.22;100032.03;334628;28;17861;-66
2023/10/09 00:16:36;;;;;;;3.35;2.00;;;;;;;14.19;84.20;100045.94;334692;28;17615;-65
2023/10/09 00:16:49;;;;;;;3.20;1.90;;;;;;;14.20;84.30;100042.41;335048;28;18097;-65
2023/10/09 00:17:23;;;;;;;2.80;1.70;;;;;;;14.20;84.15;100037.16;338185;28;13829;-66
2023/10/09 00:17:34;;;;;;;2.25;1.42;;;;;;;14.22;84.44;100037.97;334246;28;15904;-65
2023/10/09 00:17:46;;;;;;;2.28;1.42;;;;;;;14.22;84.35;100045.81;336776;28;4719;-65
2023/10/09 00:17:58;;;;;;;2.97;1.42;;;;;;;14.22;84.54;100040.56;334819;28;18404;-65
2023/10/09 00:18:12;;;;;;;3.58;1.50;;;;;;;14.21;84.88;100038.88;336924;28;4730;-66
2023/10/09 00:18:29;;;;;;;4.03;1.55;;;;;;;14.22;85.12;100031.88;334384;28;18964;-65
2023/10/09 00:18:46;;;;;;;3.17;1.55;;;;;;;14.22;85.36;100040.56;334417;28;18004;-66
2023/10/09 00:19:13;;;;;;;3.72;1.70;;;;;;;14.19;85.47;100038.94;334397;28;17902;-65
2023/10/09 00:19:31;;;;;;;3.90;1.70;;;;;;;14.24;85.00;100043.97;333321;28;18233;-65
2023/10/09 00:19:47;;;;;;;3.88;1.70;;;;;;;14.24;84.85;100028.28;330787;28;17817;-65
2023/10/09 00:20:07;;;;;;;2.85;1.33;;;;;;;14.26;84.54;100039.53;333761;28;18175;-65
2023/10/09 00:20:21;;;;;;;2.00;1.30;;;;;;;14.25;84.74;100034.38;334914;28;17402;-66
2023/10/09 00:20:42;;;;;;;2.80;1.65;;;;;;;14.24;85.11;100041.34;331804;28;18097;-66
2023/10/09 00:21:11;;;;;;;2.55;1.58;;;;;;;14.26;84.74;100031.69;334377;28;17742;-66
2023/10/09 00:21:27;;;;;;;3.42;1.75;;;;;;;14.33;84.25;100034.91;333863;28;17328;-66
2023/10/09 00:21:49;;;;;;;3.55;1.70;;;;;;;14.34;84.02;100042.66;334441;28;16530;-66
2023/10/09 00:22:09;;;;;;;3.50;1.48;;;;;;;14.35;84.08;100039.16;336192;28;17302;-66
2023/10/09 00:22:43;;;;;;;2.97;1.55;;;;;;;14.33;83.99;100038.38;330600;28;17530;-66
2023/10/09 00:22:56;;;;;;;4.07;1.73;;;;;;;14.34;83.97;100040.06;335454;28;18652;-65
2023/10/09 00:23:18;;;;;;;5.85;1.92;;;;;;;14.36;83.72;100035.59;338376;28;4624;-65
2023/10/09 00:23:33;;;;;;;4.60;1.83;;;;;;;14.35;83.51;100038.31;336206;28;17654;-65
2023/10/09 00:23:55;;;;;;;2.03;1.48;;;;;;;14.32;83.74;100041.88;334655;28;17436;-65
2023/10/09 00:24:13;;;;;;;2.10;1.30;;;;;;;14.30;83.92;100043.72;334063;28;17738;-66
2023/10/09 00:24:25;;;;;;;3.10;1.63;;;;;;;14.29;84.24;100036.81;333566;28;17773;-66
2023/10/09 00:24:45;;;;;;;3.33;1.60;;;;;;;14.30;84.34;100037.63;336706;28;4644;-66
2023/10/09 00:25:10;;;;;;;3.10;1.42;;;;;;;14.29;84.21;100039.41;334635;28;17453;-65
2023/10/09 00:25:29;;;;;;;4.28;2.22;;;;;;;14.30;84.37;100046.34;334903;28;18073;-66
2023/10/09 00:26:08;;;;;;;4.22;1.95;;;;;;;14.27;85.07;100043.84;332968;28;18629;-66
2023/10/09 00:26:21;;;;;;;2.67;1.48;;;;;;;14.27;84.68;100049.09;333869;28;17159;-65
2023/10/09 00:26:42;;;;;;;2.75;1.42;;;;;;;14.29;84.57;100043.81;334356;28;18184;-66
2023/10/09 00:27:31;;;;;;;2.60;1.70;;;;;;;14.31;84.54;100045.44;335121;28;17380;-66
2023/10/09 00:27:46;;;;;;;2.35;1.60;;;;;;;14.31;84.15;100041.97;333696;28;16704;-66
2023/10/09 00:27:59;;;;;;;2.67;1.65;;;;;;;14.28;84.19;100037.69;334984;28;18080;-65
2023/10/09 00:28:12;;;;;;;5.25;1.73;;;;;;;14.26;84.11;100039.53;334359;28;11796;-66
2023/10/09 00:28:25;;;;;;;7.82;1.75;;;;;;;14.26;84.02;100050.00;336739;28;5438;-66
2023/10/09 00:28:41;;;;;;;5.45;1.60;;;;;;;14.27;84.27;100045.63;337086;28;4817;-65
2023/10/09 00:28:53;;;;;;;6.57;1.45;;;;;;;14.27;84.61;100041.25;333125;28;16939;-65
2023/10/09 00:29:05;;;;;;;6.32;1.40;;;;;;;14.26;84.66;100047.38;336479;28;4653;-65
2023/10/09 00:29:26;;;;;;;3.05;1.50;;;;;;;14.26;84.73;100047.38;334776;28;12896;-66
2023/10/09 00:29:45;;;;;;;2.80;1.50;;;;;;;14.28;84.42;100050.78;334371;28;17760;-65
2023/10/09 00:29:57;;;;;;;2.60;1.50;;;;;;;14.30;84.14;100041.09;333658;28;17617;-65
2023/10/09 00:30:18;;;;;;;2.95;1.58;;;;;;;14.31;84.24;100045.44;336565;28;4506;-66
2023/10/09 00:30:30;;;;;;;2.85;1.60;;;;;;;14.32;84.51;100039.28;334482;28;17824;-65
2023/10/09 00:30:43;;;;;;;2.85;1.60;;;;;;;14.34;84.21;100045.28;334601;28;9598;-66
2023/10/09 00:30:55;;;;;;;3.25;1.70;;;;;;;14.35;84.13;100041.78;333765;28;18142;-65
2023/10/09 00:31:07;;;;;;;2.75;1.42;;;;;;;14.33;84.14;100043.59;336033;28;5507;-66
2023/10/09 00:31:28;;;;;;;2.40;1.35;;;;;;;14.34;84.40;100047.91;326858;28;18180;-65
2023/10/09 00:31:40;;;;;;;3.60;1.58;;;;;;;14.36;84.13;100048.69;330378;28;17623;-66
2023/10/09 00:32:05;;;;;;;3.13;1.48;;;;;;;14.37;84.12;100042.56;336695;28;5773;-66
2023/10/09 00:32:26;;;;;;;1.67;1.13;;;;;;;14.36;84.19;100046.06;335095;28;18922;-65
2023/10/09 00:32:45;;;;;;;1.80;1.38;;;;;;;14.41;84.00;100045.03;335557;28;17411;-66
2023/10/09 00:33:04;;;;;;;1.80;1.40;;;;;;;14.37;83.50;100039.94;336738;28;18579;-66
2023/10/09 00:33:21;;;;;;;4.82;1.50;;;;;;;14.40;83.60;100049.41;329340;28;18818;-65
2023/10/09 00:33:34;;;;;;;12.73;1.63;;;;;;;14.39;83.44;100048.56;336434;28;17582;-66
2023/10/09 00:33:46;;;;;;;9.82;1.55;;;;;;;14.41;83.62;100045.03;336875;28;17807;-66
2023/10/09 00:34:19;;;;;;;4.90;1.83;;;;;;;14.42;83.54;100042.34;338338;28;4726;-66
2023/10/09 00:34:39;;;;;;;2.70;1.35;;;;;;;14.42;83.99;100039.75;334483;28;17358;-66
2023/10/09 00:34:51;;;;;;;3.92;1.50;;;;;;;14.35;84.44;100047.00;333862;28;18410;-66
2023/10/09 00:35:36;;;;;;;3.45;1.55;;;;;;;14.39;84.31;100043.34;337686;28;4557;-65
2023/10/09 00:35:57;;;;;;;2.47;1.48;;;;;;;14.39;84.04;100042.50;337446;28;4640;-66
2023/10/09 00:36:11;;;;;;;2.45;1.45;;;;;;;14.35;84.22;100041.78;334140;28;17713;-66
2023/10/09 00:36:28;;;;;;;2.35;1.40;;;;;;;14.37;84.29;100045.16;333728;28;17884;-66
2023/10/09 00:36:50;;;;;;;2.17;1.40;;;;;;;14.37;84.33;100039.94;334906;28;18944;-66
2023/10/09 00:37:04;;;;;;;4.05;1.55;;;;;;;14.38;85.01;100041.63;333687;28;17223;-66
2023/10/09 00:37:17;;;;;;;4.15;1.58;;;;;;;14.38;84.55;100046.84;333700;28;7419;-66
2023/10/09 00:37:33;;;;;;;3.35;1.40;;;;;;;14.39;84.24;100048.56;336872;28;5009;-66
2023/10/09 00:37:46;;;;;;;2.35;1.20;;;;;;;14.39;84.16;100048.56;334022;28;17639;-66
2023/10/09 00:38:22;;;;;;;2.95;1.58;;;;;;;14.41;84.05;100045.03;335130;28;17935;-66
2023/10/09 00:38:34;;;;;;;1.67;1.20;;;;;;;14.41;83.93;100039.78;334672;28;17667;-66
2023/10/09 00:38:51;;;;;;;2.15;1.42;;;;;;;14.38;84.03;100044.25;334475;28;17680;-66
2023/10/09 00:39:12;;;;;;;3.20;1.48;;;;;;;14.41;84.44;100045.03;334997;28;17412;-66
2023/10/09 00:39:55;;;;;;;5.10;1.60;;;;;;;14.40;84.52;100038.97;329576;28;17366;-66
2023/10/09 00:40:20;;;;;;;4.85;1.50;;;;;;;14.36;84.82;100040.00;334318;28;17606;-66
2023/10/09 00:40:34;;;;;;;3.33;1.27;;;;;;;14.34;85.02;100040.06;333012;28;17484;-65
2023/10/09 00:40:56;;;;;;;2.85;1.40;;;;;;;14.36;84.84;100040.00;332192;28;5139;-65
2023/10/09 00:41:22;;;;;;;5.18;1.60;;;;;;;14.37;84.82;100042.56;336980;28;4779;-66
2023/10/09 00:41:35;;;;;;;3.50;1.45;;;;;;;14.37;84.71;100039.94;333444;28;18913;-66
2023/10/09 00:41:47;;;;;;;3.33;1.40;;;;;;;14.37;84.52;100039.94;334700;28;7478;-66
2023/10/09 00:42:00;;;;;;;3.63;1.52;;;;;;;14.38;84.25;100035.56;336177;28;5479;-66
2023/10/09 00:42:14;;;;;;;4.45;1.60;;;;;;;14.38;84.11;100040.78;333320;28;4990;-65
2023/10/09 00:42:32;;;;;;;2.78;1.42;;;;;;;14.38;84.11;100040.78;338535;28;5554;-65
2023/10/09 00:42:44;;;;;;;2.28;1.50;;;;;;;14.37;84.21;100039.94;330730;28;17383;-65
2023/10/09 00:42:56;;;;;;;4.32;1.60;;;;;;;14.35;84.00;100031.31;334239;28;8527;-66
2023/10/09 00:43:13;;;;;;;4.15;1.50;;;;;;;14.37;84.08;100029.47;334957;28;18111;-65
2023/10/09 00:43:29;;;;;;;5.05;1.65;;;;;;;14.35;83.78;100038.31;333592;28;18969;-66
2023/10/09 00:43:43;;;;;;;5.53;1.55;;;;;;;14.37;83.67;100037.31;330820;28;18030;-66
2023/10/09 00:43:59;;;;;;;3.97;1.30;;;;;;;14.34;83.63;100040.06;335527;28;18365;-65
2023/10/09 00:44:11;;;;;;;3.50;1.40;;;;;;;14.31;84.10;100032.34;335187;28;17000;-65
2023/10/09 00:44:24;;;;;;;2.65;1.33;;;;;;;14.32;83.99;100036.66;335011;28;19490;-66
2023/10/09 00:44:41;;;;;;;3.42;1.45;;;;;;;14.34;83.96;100034.81;337985;28;5231;-65
2023/10/09 00:44:55;;;;;;;4.20;1.55;;;;;;;14.34;83.69;100029.59;333973;28;18336;-65
2023/10/09 00:45:10;;;;;;;4.80;1.55;;;;;;;14.35;83.42;100033.94;336797;28;5586;-66
2023/10/09 00:45:31;;;;;;;4.10;1.63;;;;;;;14.33;83.37;100035.75;330553;28;18074;-65
2023/10/09 00:45:44;;;;;;;3.17;1.48;;;;;;;14.35;83.44;100028.69;337375;28;17473;-65
2023/10/09 00:46:29;;;;;;;3.83;1.80;;;;;;;14.38;83.08;100031.16;335265;28;18569;-65
2023/10/09 00:46:47;;;;;;;3.97;1.90;;;;;;;14.39;83.07;100037.28;336552;28;5386;-66
2023/10/09 00:47:08;;;;;;;2.50;1.65;;;;;;;14.36;82.96;100030.38;334383;28;18083;-65
2023/10/09 00:47:20;;;;;;;2.83;1.50;;;;;;;14.38;82.85;100030.31;337212;28;17035;-66
2023/10/09 00:47:34;;;;;;;2.63;1.30;;;;;;;14.38;82.70;100028.56;337843;28;5548;-66
2023/10/09 00:47:47;;;;;;;3.50;1.40;;;;;;;14.38;82.58;100028.56;334082;28;16765;-65
2023/10/09 00:48:02;;;;;;;4.38;1.52;;;;;;;14.41;82.23;100029.34;336929;28;12069;-65
2023/10/09 00:48:22;;;;;;;4.10;1.48;;;;;;;14.41;82.17;100029.34;330265;28;18174;-66
2023/10/09 00:48:40;;;;;;;2.25;1.27;;;;;;;14.43;82.20;100027.50;333991;28;17538;-66
2023/10/09 00:48:58;;;;;;;5.15;1.70;;;;;;;14.45;82.19;100023.09;334619;28;17768;-65
2023/10/09 00:49:10;;;;;;;4.13;1.40;;;;;;;14.43;82.45;100027.50;333613;28;17812;-66
2023/10/09 00:49:22;;;;;;;1.98;1.15;;;;;;;14.44;82.31;100029.22;337318;28;4723;-65
2023/10/09 00:49:35;;;;;;;2.38;1.58;;;;;;;14.42;82.41;100025.81;337414;28;4673;-66
2023/10/09 00:49:58;;;;;;;3.90;1.75;;;;;;;14.40;82.50;100025.88;335692;28;17936;-66
2023/10/09 00:50:35;;;;;;;2.80;1.30;;;;;;;14.39;83.03;100027.66;331764;28;17519;-65
2023/10/09 00:50:53;;;;;;;2.75;1.20;;;;;;;14.41;82.50;100024.97;336300;28;18331;-66
2023/10/09 00:51:06;;;;;;;2.28;1.30;;;;;;;14.39;82.51;100027.66;334728;28;18009;-66
2023/10/09 00:51:24;;;;;;;3.42;1.50;;;;;;;14.39;82.81;100025.03;335773;28;19436;-66
2023/10/09 00:51:49;;;;;;;4.78;1.50;;;;;;;14.39;82.58;100024.19;335704;28;17720;-65
2023/10/09 00:52:17;;;;;;;3.58;1.70;;;;;;;14.38;82.22;100025.09;335972;28;17886;-66
2023/10/09 00:52:33;;;;;;;3.80;1.40;;;;;;;14.39;82.83;100030.28;334298;28;18750;-66
2023/10/09 00:52:50;;;;;;;3.65;1.50;;;;;;;14.41;82.49;100024.09;329830;28;17876;-66
2023/10/09 00:53:09;;;;;;;1.92;1.30;;;;;;;14.37;83.00;100024.25;333519;28;17695;-66
2023/10/09 00:53:32;;;;;;;2.67;1.35;;;;;;;14.41;82.73;100024.09;336121;28;17715;-65
2023/10/09 00:53:53;;;;;;;2.80;1.23;;;;;;;14.43;82.19;100027.50;337156;28;15432;-65
2023/10/09 00:54:08;;;;;;;2.60;1.63;;;;;;;14.43;81.76;100027.50;335794;28;17805;-66
2023/10/09 00:54:26;;;;;;;2.95;1.70;;;;;;;14.39;81.70;100027.66;337276;28;19209;-65
2023/10/09 00:54:41;;;;;;;2.67;1.33;;;;;;;14.40;81.63;100023.25;335836;28;18876;-66
2023/10/09 00:54:53;;;;;;;2.65;1.23;;;;;;;14.41;81.48;100018.88;337409;28;5424;-66
2023/10/09 00:55:20;;;;;;;2.43;1.43;;;;;;;14.40;81.52;100023.25;338481;28;8042;-66
2023/10/09 00:55:56;;;;;;;1.20;1.02;;;;;;;14.42;81.29;100020.59;333702;28;16171;-66
2023/10/09 00:56:19;;;;;;;1.30;1.13;;;;;;;14.42;81.24;100020.59;336413;28;10849;-66
2023/10/09 00:56:38;;;;;;;2.47;1.45;;;;;;;14.41;81.00;100024.09;336056;28;18434;-65
2023/10/09 00:56:57;;;;;;;2.58;1.40;;;;;;;14.31;81.03;100021.91;334345;28;17765;-65
2023/10/09 00:57:13;;;;;;;2.17;1.33;;;;;;;14.27;81.25;100012.47;334855;28;17858;-66
2023/10/09 00:57:25;;;;;;;1.92;1.25;;;;;;;14.28;81.46;100019.41;334820;28;17583;-66
2023/10/09 00:57:38;;;;;;;1.65;1.20;;;;;;;14.23;81.23;100021.38;336256;28;4677;-66
2023/10/09 00:58:00;;;;;;;3.63;1.75;;;;;;;14.23;81.60;100016.13;334896;28;17758;-65
2023/10/09 00:58:14;;;;;;;3.92;1.80;;;;;;;14.22;81.71;100008.34;332424;28;17119;-66
2023/10/09 00:58:26;;;;;;;2.50;1.37;;;;;;;14.24;81.68;100015.22;334299;28;17503;-66
2023/10/09 00:58:40;;;;;;;2.67;1.35;;;;;;;14.26;81.39;100013.38;332611;28;5414;-65
2023/10/09 00:59:20;;;;;;;2.78;1.50;;;;;;;14.23;81.57;100010.06;334366;28;19942;-66
2023/10/09 00:59:34;;;;;;;2.55;1.27;;;;;;;14.26;81.48;100016.00;335362;28;21591;-66
2023/10/09 00:59:51;;;;;;;5.18;1.33;;;;;;;14.25;81.39;100013.47;330617;28;17670;-66
2023/10/09 01:00:10;;;;;;;4.70;1.33;;;;;;;14.27;81.42;100009.03;334304;28;17884;-66
2023/10/09 01:00:59;;;;;;;2.95;1.45;;;;;;;14.21;81.71;100011.91;334535;28;15138;-66
2023/10/09 01:01:15;;;;;;;4.13;1.55;;;;;;;14.22;81.54;100011.81;334385;28;18245;-65
2023/10/09 01:01:39;;;;;;;4.50;1.75;;;;;;;14.19;81.63;100004.94;334752;28;18020;-66
2023/10/09 01:02:04;;;;;;;4.50;1.52;;;;;;;14.20;81.58;100005.78;334269;28;17463;-65
2023/10/09 01:02:19;;;;;;;3.03;1.58;;;;;;;14.15;81.74;100010.38;334601;28;17209;-66
2023/10/09 01:02:42;;;;;;;2.30;1.42;;;;;;;14.10;81.94;100014.94;333243;28;18369;-66
2023/10/09 01:03:19;;;;;;;2.22;1.20;;;;;;;14.10;82.24;100014.94;333343;28;17373;-66
2023/10/09 01:03:27;;;;;;;2.67;1.30;;;;;;;14.07;82.62;100009.84;333516;28;18611;-66
2023/10/09 01:03:40;;;;;;;2.55;1.20;;;;;;;14.07;82.84;100005.47;337037;28;5277;-65
2023/10/09 01:03:52;;;;;;;2.53;1.15;;;;;;;14.08;82.63;100006.31;334419;28;18295;-66
2023/10/09 01:04:29;;;;;;;3.08;1.60;;;;;;;14.08;82.51;100016.75;335829;28;5179;-66
2023/10/09 01:04:41;;;;;;;2.58;1.30;;;;;;;14.11;82.14;100006.19;333973;28;16999;-66
2023/10/09 01:04:53;;;;;;;2.47;1.33;;;;;;;14.12;82.31;100013.09;334379;28;11841;-66
2023/10/09 01:05:19;;;;;;;3.88;1.58;;;;;;;14.12;82.23;100011.34;336769;28;5356;-65
2023/10/09 01:05:31;;;;;;;2.42;1.30;;;;;;;14.06;82.66;100013.38;335168;28;17491;-65
2023/10/09 01:05:51;;;;;;;2.40;1.20;;;;;;;14.04;83.17;100004.75;334733;28;17578;-66
2023/10/09 01:06:21;;;;;;;3.65;1.58;;;;;;;13.99;83.13;100008.41;337726;28;4675;-66
2023/10/09 01:06:34;;;;;;;3.47;1.50;;;;;;;13.99;83.24;100007.56;336375;28;18642;-66
2023/10/09 01:07:04;;;;;;;2.25;1.20;;;;;;;14.03;83.05;100005.66;334098;28;17573;-66
2023/10/09 01:07:20;;;;;;;2.72;1.25;;;;;;;14.07;82.94;100009.84;330660;28;17071;-65
2023/10/09 01:07:32;;;;;;;2.72;1.45;;;;;;;14.06;82.90;100008.13;334155;28;17781;-66
2023/10/09 01:07:47;;;;;;;1.83;1.33;;;;;;;14.06;82.97;100008.97;335076;28;17732;-66
2023/10/09 01:07:59;;;;;;;1.98;1.27;;;;;;;14.09;82.82;100002.78;331382;28;5189;-66
2023/10/09 01:08:16;;;;;;;2.45;1.38;;;;;;;14.09;82.97;100008.88;337419;28;4812;-66
2023/10/09 01:08:56;;;;;;;3.30;1.25;;;;;;;14.09;82.84;100008.88;336136;28;5250;-65
2023/10/09 01:09:13;;;;;;;2.97;1.10;;;;;;;14.10;82.80;100007.09;334241;28;18281;-66
2023/10/09 01:09:28;;;;;;;2.22;1.20;;;;;;;14.11;82.71;100006.19;334093;28;18015;-66
2023/10/09 01:09:43;;;;;;;2.20;1.50;;;;;;;14.11;82.77;100003.59;332349;28;4670;-65
2023/10/09 01:09:55;;;;;;;2.50;1.48;;;;;;;14.11;82.63;100006.19;334144;28;17769;-66
2023/10/09 01:10:11;;;;;;;3.35;1.45;;;;;;;14.11;82.88;100006.19;337722;28;4741;-66
2023/10/09 01:10:36;;;;;;;3.30;1.40;;;;;;;14.11;82.71;100007.03;334751;28;18135;-66
2023/10/09 01:10:56;;;;;;;2.60;1.30;;;;;;;14.13;82.67;100009.59;334075;28;16175;-66
2023/10/09 01:11:18;;;;;;;3.38;1.25;;;;;;;14.14;82.85;100003.44;334200;28;18341;-66
2023/10/09 01:11:30;;;;;;;3.03;1.27;;;;;;;14.14;83.08;100006.91;335021;28;17908;-65
2023/10/09 01:12:03;;;;;;;2.10;1.02;;;;;;;14.13;83.31;100005.22;336371;28;4613;-65
2023/10/09 01:12:18;;;;;;;1.70;0.98;;;;;;;14.12;83.62;99997.44;334785;28;17378;-66
2023/10/09 01:12:30;;;;;;;3.15;1.20;;;;;;;14.12;83.28;100000.03;329977;28;18198;-66
2023/10/09 01:12:45;;;;;;;3.95;1.35;;;;;;;14.12;83.40;100007.88;334234;28;4739;-66
2023/10/09 01:12:58;;;;;;;4.80;1.48;;;;;;;14.13;83.85;100004.38;334854;28;17860;-65
2023/10/09 01:13:10;;;;;;;5.53;1.40;;;;;;;14.13;83.89;100005.22;337204;28;4676;-65
2023/10/09 01:13:41;;;;;;;5.10;1.33;;;;;;;14.15;83.67;100007.78;333957;28;18149;-65
2023/10/09 01:13:55;;;;;;;1.90;1.25;;;;;;;14.21;83.30;100011.91;335413;28;17585;-66
2023/10/09 01:14:21;;;;;;;2.80;1.48;;;;;;;14.24;83.50;100004.75;338953;28;4627;-66
2023/10/09 01:14:36;;;;;;;2.60;1.33;;;;;;;14.25;83.35;100006.47;335370;28;18122;-66
2023/10/09 01:14:52;;;;;;;2.97;1.35;;;;;;;14.23;83.59;100003.06;334801;28;10967;-65
2023/10/09 01:15:07;;;;;;;3.05;1.38;;;;;;;14.26;83.47;100002.06;334524;28;17538;-66
2023/10/09 01:15:36;;;;;;;4.38;1.42;;;;;;;14.28;83.40;100002.88;335125;28;17875;-66
2023/10/09 01:15:48;;;;;;;3.80;1.40;;;;;;;14.30;82.68;99996.66;330243;28;17589;-66
2023/10/09 01:16:04;;;;;;;4.15;1.52;;;;;;;14.32;82.83;100005.28;336843;28;4623;-65
2023/10/09 01:16:18;;;;;;;2.67;1.52;;;;;;;14.35;82.77;100009.56;330739;28;17646;-66
2023/10/09 01:16:31;;;;;;;2.40;1.50;;;;;;;14.36;82.71;100001.63;334190;28;18639;-65
2023/10/09 01:16:44;;;;;;;2.58;1.45;;;;;;;14.35;82.63;100002.53;334385;28;5570;-65
2023/10/09 01:16:56;;;;;;;2.75;1.40;;;;;;;14.36;82.76;100001.63;337257;28;5923;-66
2023/10/09 01:17:09;;;;;;;4.10;1.42;;;;;;;14.38;82.81;100004.16;333075;28;17811;-66
2023/10/09 01:17:35;;;;;;;3.75;1.20;;;;;;;14.35;82.90;100005.16;337403;28;4707;-65
2023/10/09 01:17:48;;;;;;;3.40;1.30;;;;;;;14.37;82.76;100003.31;335137;28;17620;-65
2023/10/09 01:18:02;;;;;;;2.30;1.10;;;;;;;14.37;82.72;100000.72;337924;28;4584;-66
2023/10/09 01:18:14;;;;;;;2.58;1.30;;;;;;;14.41;82.82;99998.81;335177;28;10812;-65
2023/10/09 01:18:35;;;;;;;2.60;1.35;;;;;;;14.41;82.80;99997.94;336686;28;4744;-66
2023/10/09 01:18:56;;;;;;;2.30;1.38;;;;;;;14.43;82.47;100001.34;334861;28;17693;-66
2023/10/09 01:19:24;;;;;;;2.90;1.55;;;;;;;14.42;82.79;99989.22;334867;28;17688;-66
2023/10/09 01:19:36;;;;;;;2.40;1.40;;;;;;;14.42;82.70;100002.28;334514;28;17422;-66
2023/10/09 01:19:48;;;;;;;2.13;1.40;;;;;;;14.43;82.65;100002.22;337621;28;4825;-65
2023/10/09 01:20:14;;;;;;;2.55;1.33;;;;;;;14.43;82.58;99996.13;328778;28;18258;-66
2023/10/09 01:20:30;;;;;;;3.20;1.48;;;;;;;14.44;82.54;100003.06;333842;28;18467;-66
2023/10/09 01:20:45;;;;;;;2.17;1.40;;;;;;;14.44;82.79;100003.91;335333;28;17870;-66
2023/10/09 01:20:57;;;;;;;2.45;1.60;;;;;;;14.45;82.26;99996.94;335183;28;18009;-65
2023/10/09 01:21:14;;;;;;;2.90;1.65;;;;;;;14.48;82.24;99996.78;334973;28;5248;-65
2023/10/09 01:21:27;;;;;;;2.47;1.42;;;;;;;14.46;82.39;99996.00;334036;28;17945;-66
2023/10/09 01:21:39;;;;;;;3.58;1.30;;;;;;;14.43;82.27;99997.00;336635;28;6503;-65
2023/10/09 01:21:52;;;;;;;3.92;1.42;;;;;;;14.46;82.43;99996.00;334042;28;18374;-65
2023/10/09 01:22:10;;;;;;;3.28;1.60;;;;;;;14.47;82.02;99995.09;338396;28;4578;-66
2023/10/09 01:22:24;;;;;;;4.35;1.45;;;;;;;14.50;81.51;99997.56;334544;28;17660;-66
2023/10/09 01:22:36;;;;;;;5.45;1.50;;;;;;;14.49;81.42;99998.50;336920;28;5548;-66
2023/10/09 01:22:50;;;;;;;3.97;1.30;;;;;;;14.51;81.62;99997.50;335394;28;18294;-65
2023/10/09 01:23:03;;;;;;;3.58;1.25;;;;;;;14.48;81.74;99995.00;334063;28;11550;-65
2023/10/09 01:23:15;;;;;;;2.83;1.20;;;;;;;14.51;81.74;99994.06;335807;29;5328;-66
2023/10/09 01:23:29;;;;;;;2.33;1.20;;;;;;;14.51;81.67;99992.28;328435;28;12928;-65
2023/10/09 01:24:07;;;;;;;1.95;1.20;;;;;;;14.51;82.35;99991.44;335562;28;4687;-66
2023/10/09 01:24:20;;;;;;;2.80;1.52;;;;;;;14.52;82.38;99995.72;332555;28;17418;-66
2023/10/09 01:24:35;;;;;;;3.00;1.42;;;;;;;14.53;82.14;99997.44;332771;28;12469;-66
2023/10/09 01:24:51;;;;;;;3.15;1.40;;;;;;;14.54;81.87;99994.75;336345;28;17228;-66
2023/10/09 01:25:05;;;;;;;2.78;1.27;;;;;;;14.56;81.83;99992.09;331949;28;17602;-65
2023/10/09 01:25:20;;;;;;;2.38;1.40;;;;;;;14.57;81.87;99994.66;333285;28;17862;-66
2023/10/09 01:25:42;;;;;;;2.38;1.55;;;;;;;14.58;81.83;99991.09;333988;28;19096;-65